Terminal Aerodrome Forecast
Issued by NWS

Home | Current Version | Previous Version | Graphics & Text | Print | Product List | Glossary On
Versions: 1 2 3 4 5 6 7 8 9 10 11 12 13
000
FTUS43 KOAX 291700
TAFCDR
TAF
KCDR 291727Z 2918/3018 34007KT P6SM SCT100
     FM291900 02008KT P6SM VCTS SCT070CB BKN100
     FM300000 VRB04KT P6SM SCT100
     FM300700 19007KT P6SM SKC=

USA.gov is the U.S. government's official web portal to all federal, state and local government web resources and services.